createdAt,value
2018-10-06T00:00:43.261Z,8.15
2018-10-06T00:04:59.911Z,8.65
2018-10-06T00:06:29.936Z,7.92
2018-10-06T00:07:36.750Z,8.33
2018-10-06T00:08:40.897Z,8.48
2018-10-06T00:09:45.036Z,8.30
2018-10-06T00:10:49.342Z,8.60
2018-10-06T00:11:53.551Z,8.83
2018-10-06T00:12:57.716Z,8.50
2018-10-06T00:14:04.020Z,9.05
2018-10-06T00:15:08.424Z,8.50
2018-10-06T00:16:12.559Z,9.08
2018-10-06T00:17:19.419Z,7.75
2018-10-06T00:18:42.720Z,8.30
2018-10-06T00:20:15.738Z,8.55
2018-10-06T00:21:19.825Z,8.58
2018-10-06T00:22:24.414Z,8.33
2018-10-06T00:24:41.323Z,8.63
2018-10-06T00:25:45.679Z,8.33
2018-10-06T00:26:49.816Z,8.53
2018-10-06T00:27:53.995Z,9.13
2018-10-06T00:28:58.076Z,9.15
2018-10-06T00:30:02.186Z,8.38
2018-10-06T00:31:06.603Z,9.48
2018-10-06T00:32:10.706Z,8.43
2018-10-06T00:33:15.199Z,9.90
2018-10-06T00:34:19.307Z,9.20
2018-10-06T00:35:23.350Z,9.13
2018-10-06T00:36:27.439Z,9.43
2018-10-06T00:37:31.554Z,10.25
2018-10-06T00:38:35.801Z,9.30
2018-10-06T00:39:40.005Z,9.25
2018-10-06T00:40:44.087Z,9.48
2018-10-06T00:41:48.199Z,9.78
2018-10-06T00:42:52.296Z,9.10
2018-10-06T00:43:56.510Z,10.15
2018-10-06T00:45:00.711Z,9.20
2018-10-06T00:46:04.867Z,9.43
2018-10-06T00:47:09.031Z,9.25
2018-10-06T00:48:13.254Z,9.35
2018-10-06T00:49:17.428Z,10.23
2018-10-06T00:50:21.528Z,9.63
2018-10-06T00:51:33.658Z,10.48
2018-10-06T00:52:45.548Z,9.50
2018-10-06T00:53:56.775Z,9.83
2018-10-06T00:55:10.152Z,9.90
2018-10-06T00:56:16.321Z,9.40
2018-10-06T00:57:20.396Z,10.70
2018-10-06T01:02:07.918Z,9.73
2018-10-06T01:03:11.942Z,9.85
2018-10-06T01:04:18.499Z,9.53
2018-10-06T01:05:22.559Z,10.38
2018-10-06T01:06:27.635Z,9.98
2018-10-06T01:07:32.310Z,10.18
2018-10-06T01:08:36.412Z,10.05
2018-10-06T01:09:40.559Z,9.85
2018-10-06T01:10:44.668Z,10.95
2018-10-06T01:11:48.778Z,9.85
2018-10-06T01:12:58.455Z,9.73
2018-10-06T01:14:02.514Z,11.25
2018-10-06T01:15:08.090Z,10.10
2018-10-06T01:16:12.201Z,10.50
2018-10-06T01:17:16.321Z,11.00
2018-10-06T01:18:20.794Z,10.32
2018-10-06T01:19:24.944Z,10.25
2018-10-06T01:20:29.011Z,10.23
2018-10-06T01:21:33.363Z,10.40
2018-10-06T01:22:37.992Z,11.28
2018-10-06T01:23:47.166Z,11.68
2018-10-06T01:25:04.390Z,10.10
2018-10-06T01:31:46.302Z,10.03
2018-10-06T01:32:52.835Z,11.15
2018-10-06T01:34:02.648Z,11.18
2018-10-06T01:35:08.226Z,10.40
2018-10-06T01:36:12.335Z,11.33
2018-10-06T01:37:16.530Z,10.80
2018-10-06T01:38:20.629Z,11.88
2018-10-06T01:39:28.346Z,10.82
2018-10-06T01:40:35.220Z,10.88
2018-10-06T01:41:39.375Z,11.38
2018-10-06T01:42:43.506Z,11.05
2018-10-06T01:43:50.595Z,10.93
2018-10-06T01:44:55.179Z,10.75
2018-10-06T01:45:59.307Z,10.90
2018-10-06T01:47:03.421Z,10.20
2018-10-06T01:48:13.992Z,11.12
2018-10-06T01:49:18.030Z,11.15
2018-10-06T01:50:29.451Z,10.38
2018-10-06T01:51:33.542Z,11.88
2018-10-06T01:52:37.700Z,10.63
2018-10-06T01:53:41.858Z,10.90
2018-10-06T01:54:45.955Z,10.38
2018-10-06T01:55:50.057Z,10.93
2018-10-06T01:56:54.195Z,10.75
2018-10-06T01:57:58.418Z,11.43
2018-10-06T01:59:04.252Z,11.05
2018-10-06T02:00:08.365Z,11.08
2018-10-06T02:01:14.702Z,10.75
2018-10-06T02:02:18.985Z,10.58
2018-10-06T02:03:23.066Z,10.43
2018-10-06T02:04:31.614Z,11.43
2018-10-06T02:05:35.688Z,10.82
2018-10-06T02:06:39.823Z,11.38
2018-10-06T02:07:49.083Z,10.88
2018-10-06T02:08:53.156Z,10.40
2018-10-06T02:09:58.956Z,11.50
2018-10-06T02:11:04.101Z,10.85
2018-10-06T02:12:08.275Z,11.22
2018-10-06T02:13:12.416Z,11.68
2018-10-06T02:14:21.516Z,11.75
2018-10-06T02:15:26.548Z,11.30
2018-10-06T02:16:49.956Z,11.12
2018-10-06T02:17:58.490Z,10.85
2018-10-06T02:19:02.531Z,10.90
2018-10-06T02:20:08.232Z,11.22
2018-10-06T02:21:17.416Z,11.43
2018-10-06T02:22:21.507Z,11.78
2018-10-06T02:23:25.641Z,11.28
2018-10-06T02:24:29.732Z,10.93
2018-10-06T02:25:33.837Z,10.85
2018-10-06T02:26:37.991Z,11.33
2018-10-06T02:27:42.075Z,11.20
2018-10-06T02:28:46.206Z,10.70
2018-10-06T02:29:50.403Z,11.08
2018-10-06T02:30:54.894Z,11.22
2018-10-06T02:31:59.188Z,11.55
2018-10-06T02:33:03.478Z,10.90
2018-10-06T02:34:07.662Z,11.45
2018-10-06T02:35:11.799Z,11.70
2018-10-06T02:36:16.460Z,11.63
2018-10-06T02:37:20.692Z,10.93
2018-10-06T02:38:24.814Z,11.45
2018-10-06T02:39:28.966Z,11.38
2018-10-06T02:40:33.127Z,11.63
2018-10-06T02:41:37.203Z,11.12
2018-10-06T02:42:53.005Z,12.15
2018-10-06T02:43:57.043Z,11.63
2018-10-06T02:45:14.778Z,11.20
2018-10-06T02:46:18.903Z,11.20
2018-10-06T02:47:23.050Z,11.88
2018-10-06T02:48:27.368Z,12.00
2018-10-06T02:49:31.420Z,11.40
2018-10-06T02:50:35.479Z,12.85
2018-10-06T02:51:52.164Z,11.88
2018-10-06T02:52:56.226Z,11.28
2018-10-06T02:54:05.863Z,11.95
2018-10-06T02:55:18.787Z,11.95
2018-10-06T02:56:22.876Z,12.53
2018-10-06T02:57:28.202Z,12.78
2018-10-06T02:58:38.513Z,13.38
2018-10-06T02:59:42.680Z,13.45
2018-10-06T03:01:10.274Z,12.43
2018-10-06T03:02:14.371Z,12.43
2018-10-06T03:03:18.516Z,12.88
2018-10-06T03:04:22.609Z,13.28
2018-10-06T03:05:26.873Z,13.32
2018-10-06T03:06:31.054Z,13.70
2018-10-06T03:07:35.120Z,13.03
2018-10-06T03:08:41.297Z,13.28
2018-10-06T03:09:45.384Z,12.53
2018-10-06T03:10:49.490Z,13.60
2018-10-06T03:11:53.647Z,13.78
2018-10-06T03:12:57.798Z,13.15
2018-10-06T03:14:01.918Z,12.82
2018-10-06T03:15:06.704Z,13.98
2018-10-06T03:16:10.809Z,13.58
2018-10-06T03:17:14.922Z,14.05
2018-10-06T03:18:25.282Z,13.50
2018-10-06T03:19:43.377Z,12.68
2018-10-06T03:20:54.979Z,13.90
2018-10-06T03:21:59.168Z,14.63
2018-10-06T03:23:08.630Z,14.45
2018-10-06T03:24:12.758Z,14.93
2018-10-06T03:25:16.978Z,14.78
2018-10-06T03:26:21.380Z,14.95
2018-10-06T03:27:25.524Z,15.03
2018-10-06T03:28:29.700Z,16.02
2018-10-06T03:29:43.168Z,14.53
2018-10-06T03:30:47.305Z,14.63
2018-10-06T03:31:51.376Z,16.60
2018-10-06T03:32:55.633Z,14.47
2018-10-06T03:33:59.772Z,15.18
2018-10-06T03:35:03.917Z,16.27
2018-10-06T03:36:11.089Z,16.42
2018-10-06T03:37:15.692Z,15.63
2018-10-06T03:44:18.107Z,14.18
2018-10-06T03:45:22.171Z,15.30
2018-10-06T03:46:31.364Z,15.18
2018-10-06T03:48:45.995Z,15.85
2018-10-06T03:49:50.197Z,16.20
2018-10-06T03:50:54.353Z,15.38
2018-10-06T03:51:58.474Z,16.20
2018-10-06T03:53:02.532Z,16.40
2018-10-06T03:54:06.847Z,17.42
2018-10-06T03:55:11.564Z,16.50
2018-10-06T03:56:15.640Z,17.85
2018-10-06T03:57:19.699Z,17.25
2018-10-06T03:58:23.808Z,17.55
2018-10-06T03:59:27.919Z,17.12
2018-10-06T04:00:31.986Z,17.67
2018-10-06T04:01:36.177Z,18.25
2018-10-06T04:02:40.222Z,18.15
2018-10-06T04:03:56.792Z,18.85
2018-10-06T04:05:00.818Z,18.50
2018-10-06T04:06:05.031Z,18.57
2018-10-06T04:07:12.506Z,19.10
2018-10-06T04:08:16.551Z,18.30
2018-10-06T04:09:20.562Z,18.07
2018-10-06T04:10:26.768Z,18.70
2018-10-06T04:11:31.964Z,18.40
2018-10-06T04:12:36.174Z,18.25
2018-10-06T04:13:40.216Z,19.15
2018-10-06T04:14:46.384Z,18.98
2018-10-06T04:15:50.412Z,19.40
2018-10-06T04:17:07.211Z,19.00
2018-10-06T04:18:22.027Z,18.77
2018-10-06T04:19:42.499Z,19.62
2018-10-06T04:20:55.159Z,19.55
2018-10-06T04:25:10.000Z,20.02
2018-10-06T04:26:24.999Z,18.98
2018-10-06T04:27:37.807Z,19.98
2018-10-06T04:28:41.889Z,19.45
2018-10-06T04:29:46.071Z,20.12
2018-10-06T04:31:00.738Z,19.77
2018-10-06T04:32:27.645Z,20.35
2018-10-06T04:33:34.335Z,19.77
2018-10-06T04:34:40.269Z,20.30
2018-10-06T04:35:44.414Z,19.98
2018-10-06T04:36:48.583Z,21.30
2018-10-06T04:38:03.246Z,20.23
2018-10-06T04:39:19.115Z,19.98
2018-10-06T04:40:23.173Z,19.70
2018-10-06T04:41:36.143Z,21.17
2018-10-06T04:42:44.592Z,20.12
2018-10-06T04:43:48.724Z,21.90
2018-10-06T04:44:57.982Z,20.52
2018-10-06T04:46:02.111Z,21.40
2018-10-06T04:47:06.504Z,19.90
2018-10-06T04:48:12.308Z,22.65
2018-10-06T04:49:17.691Z,21.48
2018-10-06T04:50:32.489Z,21.70
2018-10-06T04:51:42.555Z,21.93
2018-10-06T04:52:51.345Z,21.65
2018-10-06T04:53:55.553Z,22.22
2018-10-06T04:54:59.768Z,21.33
2018-10-06T04:56:15.002Z,21.75
2018-10-06T05:00:59.240Z,21.95
2018-10-06T05:02:08.941Z,21.48
2018-10-06T05:03:14.363Z,21.93
2018-10-06T05:04:18.433Z,20.20
2018-10-06T05:05:22.682Z,21.95
2018-10-06T05:06:27.777Z,21.50
2018-10-06T05:07:45.479Z,22.05
2018-10-06T05:08:51.724Z,20.68
2018-10-06T05:09:57.926Z,21.90
2018-10-06T05:11:02.086Z,20.97
2018-10-06T05:12:06.304Z,21.90
2018-10-06T05:13:10.523Z,21.85
2018-10-06T05:14:14.635Z,22.42
2018-10-06T05:15:21.406Z,22.00
2018-10-06T05:16:25.543Z,21.20
2018-10-06T05:17:29.713Z,22.55
2018-10-06T05:18:49.102Z,23.32
2018-10-06T05:19:53.167Z,21.97
2018-10-06T05:21:02.461Z,21.48
2018-10-06T05:22:06.707Z,21.12
2018-10-06T05:23:12.909Z,21.65
2018-10-06T05:24:17.121Z,21.62
2018-10-06T05:25:23.459Z,22.60
2018-10-06T05:26:27.619Z,22.05
2018-10-06T05:27:39.900Z,21.60
2018-10-06T05:28:44.091Z,22.42
2018-10-06T05:29:48.176Z,22.22
2018-10-06T05:30:59.895Z,21.77
2018-10-06T05:32:04.049Z,21.40
2018-10-06T05:33:08.275Z,23.07
2018-10-06T05:34:12.631Z,21.85
2018-10-06T05:35:17.557Z,20.68
2018-10-06T05:36:22.591Z,21.23
2018-10-06T05:37:27.887Z,21.42
2018-10-06T05:38:38.029Z,21.10
2018-10-06T05:39:42.227Z,20.50
2018-10-06T05:40:46.417Z,20.60
2018-10-06T05:41:53.185Z,21.00
2018-10-06T05:42:57.399Z,21.15
2018-10-06T05:44:01.637Z,20.80
2018-10-06T05:45:08.440Z,20.15
2018-10-06T05:46:13.558Z,20.88
2018-10-06T05:47:17.622Z,19.90
2018-10-06T05:48:21.787Z,20.72
2018-10-06T05:49:25.987Z,20.30
2018-10-06T05:50:40.160Z,21.00
2018-10-06T05:51:44.368Z,20.05
2018-10-06T05:52:48.589Z,20.12
2018-10-06T05:53:52.750Z,20.17
2018-10-06T05:54:58.983Z,20.15
2018-10-06T05:56:04.018Z,19.85
2018-10-06T05:57:10.295Z,20.10
2018-10-06T05:58:14.488Z,19.70
2018-10-06T05:59:19.052Z,18.25
2018-10-06T06:00:26.333Z,19.82
2018-10-06T06:01:30.539Z,19.52
2018-10-06T06:02:35.544Z,19.45
2018-10-06T06:03:39.668Z,18.98
2018-10-06T06:04:51.979Z,20.10
2018-10-06T06:05:56.210Z,18.20
2018-10-06T06:07:32.238Z,18.67
2018-10-06T06:08:47.131Z,19.02
2018-10-06T06:10:00.011Z,19.10
2018-10-06T06:11:04.491Z,18.87
2018-10-06T06:12:19.730Z,19.50
2018-10-06T06:13:25.244Z,18.73
2018-10-06T06:14:33.496Z,18.65
2018-10-06T06:15:53.120Z,19.17
2018-10-06T06:16:59.292Z,19.95
2018-10-06T06:18:03.457Z,18.67
2018-10-06T06:19:07.679Z,18.65
2018-10-06T06:20:11.841Z,19.17
2018-10-06T06:21:16.243Z,19.85
2018-10-06T06:22:21.417Z,20.17
2018-10-06T06:23:25.730Z,19.90
2018-10-06T06:24:30.882Z,18.80
2018-10-06T06:25:42.046Z,19.23
2018-10-06T06:26:46.216Z,19.77
2018-10-06T06:27:58.260Z,18.98
2018-10-06T06:29:02.409Z,20.00
2018-10-06T06:30:09.173Z,18.50
2018-10-06T06:31:19.209Z,19.12
2018-10-06T06:32:23.384Z,19.77
2018-10-06T06:33:27.497Z,19.73
2018-10-06T06:34:36.150Z,20.00
2018-10-06T06:35:40.444Z,19.37
2018-10-06T06:36:53.892Z,19.67
2018-10-06T06:38:05.283Z,18.00
2018-10-06T06:39:10.048Z,19.45
2018-10-06T06:41:50.692Z,19.00
2018-10-06T06:42:54.913Z,18.82
2018-10-06T06:43:59.077Z,19.37
2018-10-06T06:45:03.236Z,18.73
2018-10-06T06:46:16.528Z,18.37
2018-10-06T06:47:38.879Z,19.10
2018-10-06T06:48:46.321Z,18.57
2018-10-06T06:49:50.536Z,19.75
2018-10-06T06:50:54.796Z,18.87
2018-10-06T06:51:58.983Z,18.30
2018-10-06T06:53:03.280Z,19.45
2018-10-06T06:54:07.991Z,19.48
2018-10-06T06:55:12.589Z,18.25
2018-10-06T06:56:16.874Z,19.73
2018-10-06T06:57:21.121Z,18.25
2018-10-06T06:58:31.068Z,17.92
2018-10-06T06:59:39.149Z,20.00
2018-10-06T07:00:43.411Z,19.12
2018-10-06T07:01:47.706Z,18.32
2018-10-06T07:02:52.205Z,18.65
2018-10-06T07:03:57.288Z,18.50
2018-10-06T07:05:26.191Z,17.82
2018-10-06T07:06:31.080Z,18.60
2018-10-06T07:07:35.291Z,18.80
2018-10-06T07:08:39.530Z,18.23
2018-10-06T07:09:49.871Z,18.23
2018-10-06T07:10:54.167Z,18.80
2018-10-06T07:12:01.288Z,17.62
2018-10-06T07:13:05.469Z,18.57
2018-10-06T07:14:10.228Z,17.67
2018-10-06T07:15:14.547Z,18.10
2018-10-06T07:16:18.796Z,17.57
2018-10-06T07:17:22.983Z,18.17
2018-10-06T07:18:27.307Z,17.60
2018-10-06T07:19:31.619Z,16.75
2018-10-06T07:20:35.944Z,16.97
2018-10-06T07:21:40.300Z,16.32
2018-10-06T07:22:44.716Z,17.07
2018-10-06T07:23:48.905Z,15.80
2018-10-06T07:26:22.243Z,17.40
2018-10-06T07:27:27.348Z,16.97
2018-10-06T07:28:31.674Z,17.82
2018-10-06T07:29:36.871Z,16.82
2018-10-06T07:30:41.121Z,16.52
2018-10-06T07:31:45.516Z,15.70
2018-10-06T07:32:49.745Z,16.32
2018-10-06T07:33:56.723Z,15.20
2018-10-06T07:35:02.047Z,16.20
2018-10-06T07:36:28.308Z,16.23
2018-10-06T07:37:33.024Z,16.37
2018-10-06T07:38:41.954Z,14.78
2018-10-06T07:39:55.704Z,15.48
2018-10-06T07:41:03.104Z,15.13
2018-10-06T07:45:21.577Z,15.10
2018-10-06T07:46:26.178Z,14.10
2018-10-06T07:47:35.683Z,14.15
2018-10-06T07:48:39.923Z,14.55
2018-10-06T07:49:44.928Z,13.85
2018-10-06T07:50:49.085Z,13.20
2018-10-06T07:51:53.489Z,13.80
2018-10-06T07:53:03.004Z,12.63
2018-10-06T07:54:17.776Z,13.10
2018-10-06T07:55:34.927Z,13.03
2018-10-06T07:56:39.132Z,12.00
2018-10-06T07:57:43.565Z,13.25
2018-10-06T07:58:54.011Z,13.32
2018-10-06T08:00:04.302Z,13.60
2018-10-06T08:01:08.753Z,13.10
2018-10-06T08:02:14.306Z,12.98
2018-10-06T08:03:18.436Z,12.88
2018-10-06T08:04:33.788Z,13.20
2018-10-06T08:05:40.518Z,12.65
2018-10-06T08:06:48.752Z,13.45
2018-10-06T08:07:57.200Z,12.82
2018-10-06T08:09:01.288Z,13.62
2018-10-06T08:10:14.635Z,12.55
2018-10-06T08:11:18.750Z,12.03
2018-10-06T08:12:25.146Z,11.87
2018-10-06T08:13:34.673Z,11.85
2018-10-06T08:14:53.073Z,12.37
2018-10-06T08:15:57.213Z,12.33
2018-10-06T08:17:01.412Z,11.33
2018-10-06T08:18:08.219Z,12.50
2018-10-06T08:19:19.124Z,12.35
2018-10-06T08:22:51.606Z,11.47
2018-10-06T08:23:55.693Z,11.37
2018-10-06T08:25:14.266Z,12.03
2018-10-06T08:26:24.515Z,11.15
2018-10-06T08:27:29.093Z,11.53
2018-10-06T08:28:33.297Z,11.05
2018-10-06T08:29:37.362Z,11.78
2018-10-06T08:30:41.486Z,11.18
2018-10-06T08:31:50.901Z,11.93
2018-10-06T08:32:55.508Z,12.45
2018-10-06T08:33:59.552Z,12.45
2018-10-06T08:35:20.967Z,11.78
2018-10-06T08:36:25.080Z,11.87
2018-10-06T08:37:29.636Z,11.83
2018-10-06T08:39:44.789Z,11.50
2018-10-06T08:40:53.698Z,12.58
2018-10-06T08:41:59.889Z,11.05
2018-10-06T08:43:04.012Z,10.98
2018-10-06T08:44:17.220Z,11.08
2018-10-06T08:46:42.755Z,11.85
2018-10-06T08:47:47.504Z,11.78
2018-10-06T08:48:55.244Z,11.95
2018-10-06T08:50:03.241Z,11.73
2018-10-06T08:51:13.648Z,11.18
2018-10-06T08:52:17.807Z,11.28
2018-10-06T08:53:29.470Z,11.73
2018-10-06T08:54:34.535Z,11.15
2018-10-06T08:55:39.813Z,11.57
2018-10-06T08:56:44.122Z,10.28
2018-10-06T08:57:48.391Z,11.08
2018-10-06T08:58:53.220Z,10.20
2018-10-06T09:00:12.226Z,10.78
2018-10-06T09:01:16.350Z,10.10
2018-10-06T09:02:35.086Z,10.43
2018-10-06T09:03:40.094Z,11.28
2018-10-06T09:04:44.783Z,10.03
2018-10-06T09:05:49.003Z,9.58
2018-10-06T09:06:53.244Z,9.83
2018-10-06T09:07:57.690Z,9.70
2018-10-06T09:09:02.193Z,9.15
2018-10-06T09:10:07.407Z,10.53
2018-10-06T09:11:11.730Z,9.53
2018-10-06T09:12:15.979Z,9.50
2018-10-06T09:13:22.954Z,9.68
2018-10-06T09:14:29.397Z,10.48
2018-10-06T09:15:49.829Z,9.73
2018-10-06T09:16:55.434Z,9.90
2018-10-06T09:17:59.745Z,8.60
2018-10-06T09:19:03.954Z,9.90
2018-10-06T09:20:08.184Z,8.75
2018-10-06T09:21:12.488Z,9.53
2018-10-06T09:22:16.784Z,9.75
2018-10-06T09:23:35.604Z,9.70
2018-10-06T09:24:39.909Z,8.95
2018-10-06T09:25:44.639Z,9.33
2018-10-06T09:26:48.925Z,10.25
2018-10-06T09:28:06.574Z,9.50
2018-10-06T09:29:17.767Z,8.95
2018-10-06T09:30:22.006Z,9.05
2018-10-06T09:31:39.683Z,9.23
2018-10-06T09:32:44.444Z,9.00
2018-10-06T09:33:48.726Z,8.50
2018-10-06T09:34:53.006Z,8.13
2018-10-06T09:35:57.391Z,8.25
2018-10-06T09:37:01.866Z,7.83
2018-10-06T09:38:06.359Z,8.40
2018-10-06T09:39:10.883Z,8.60
2018-10-06T09:40:15.219Z,7.37
2018-10-06T09:41:19.452Z,8.15
2018-10-06T09:42:23.748Z,8.15
2018-10-06T09:43:27.966Z,7.85
2018-10-06T09:44:32.198Z,8.08
2018-10-06T09:45:36.488Z,7.37
2018-10-06T09:46:40.676Z,8.08
2018-10-06T09:47:50.256Z,7.55
2018-10-06T09:48:54.464Z,7.00
2018-10-06T09:49:58.651Z,7.55
2018-10-06T09:51:02.780Z,7.65
2018-10-06T09:52:07.484Z,7.60
2018-10-06T09:53:11.663Z,7.92
2018-10-06T09:54:15.992Z,7.62
2018-10-06T09:55:20.246Z,7.05
2018-10-06T09:56:24.517Z,7.10
2018-10-06T09:57:28.798Z,7.08
2018-10-06T09:58:32.979Z,7.22
2018-10-06T09:59:38.298Z,6.78
2018-10-06T10:00:48.895Z,7.00
2018-10-06T10:01:56.519Z,6.93
2018-10-06T10:03:05.852Z,6.58
2018-10-06T10:04:12.994Z,7.22
2018-10-06T10:05:25.521Z,6.87
2018-10-06T10:06:29.755Z,6.50
2018-10-06T10:07:35.233Z,6.35
2018-10-06T10:08:39.458Z,7.00
2018-10-06T10:09:43.640Z,7.00
2018-10-06T10:10:48.907Z,7.30
2018-10-06T10:11:53.877Z,6.87
2018-10-06T10:12:58.061Z,7.08
2018-10-06T10:14:02.296Z,6.75
2018-10-06T10:15:18.448Z,7.33
2018-10-06T10:16:27.888Z,7.03
2018-10-06T10:17:43.205Z,6.95
2018-10-06T10:18:47.670Z,6.78
2018-10-06T10:19:52.773Z,6.50
2018-10-06T10:20:57.653Z,7.22
2018-10-06T10:22:03.330Z,6.80
2018-10-06T10:23:11.118Z,6.97
2018-10-06T10:24:15.234Z,6.53
2018-10-06T10:25:19.433Z,6.17
2018-10-06T10:26:23.512Z,6.47
2018-10-06T10:27:27.736Z,6.90
2018-10-06T10:28:32.291Z,6.40
2018-10-06T10:29:36.367Z,6.45
2018-10-06T10:30:41.153Z,6.40
2018-10-06T10:31:45.229Z,6.33
2018-10-06T10:32:50.397Z,6.60
2018-10-06T10:33:54.555Z,6.35
2018-10-06T10:35:10.364Z,5.87
2018-10-06T10:36:14.543Z,6.20
2018-10-06T10:37:27.562Z,5.70
2018-10-06T10:38:32.291Z,6.10
2018-10-06T10:39:38.161Z,6.00
2018-10-06T10:40:46.086Z,6.33
2018-10-06T10:41:52.335Z,5.85
2018-10-06T10:42:56.408Z,6.28
2018-10-06T10:44:05.856Z,5.97
2018-10-06T10:45:10.487Z,5.67
2018-10-06T10:46:15.836Z,5.92
2018-10-06T10:47:19.950Z,5.60
2018-10-06T10:48:26.234Z,5.83
2018-10-06T10:49:35.259Z,6.10
2018-10-06T10:50:42.807Z,5.75
2018-10-06T10:51:47.979Z,6.97
2018-10-06T10:52:52.532Z,7.62
2018-10-06T10:53:57.146Z,6.60
2018-10-06T10:55:01.724Z,6.72
2018-10-06T10:56:05.892Z,5.70
2018-10-06T10:57:10.195Z,5.75
2018-10-06T10:58:14.860Z,5.80
2018-10-06T10:59:19.086Z,6.37
2018-10-06T11:00:23.747Z,6.92
2018-10-06T11:01:28.089Z,6.97
2018-10-06T11:02:32.399Z,7.25
2018-10-06T11:03:36.623Z,7.05
2018-10-06T11:04:40.826Z,6.50
2018-10-06T11:05:45.076Z,5.97
2018-10-06T11:06:49.639Z,6.10
2018-10-06T11:07:53.868Z,6.53
2018-10-06T11:08:58.159Z,5.63
2018-10-06T11:10:07.573Z,6.40
2018-10-06T11:11:12.097Z,6.10
2018-10-06T11:12:16.387Z,6.50
2018-10-06T11:13:20.561Z,6.17
2018-10-06T11:14:33.631Z,5.60
2018-10-06T11:15:49.616Z,5.90
2018-10-06T11:16:53.868Z,6.00
2018-10-06T11:17:59.239Z,5.63
2018-10-06T11:19:03.473Z,5.30
2018-10-06T11:20:07.688Z,6.00
2018-10-06T11:21:12.344Z,5.40
2018-10-06T11:22:16.644Z,5.80
2018-10-06T11:23:20.969Z,5.70
2018-10-06T11:24:34.563Z,5.80
2018-10-06T11:25:41.806Z,5.87
2018-10-06T11:26:46.083Z,5.50
2018-10-06T11:27:52.525Z,5.93
2018-10-06T11:28:56.718Z,5.00
2018-10-06T11:30:01.089Z,5.50
2018-10-06T11:31:05.322Z,6.20
2018-10-06T11:32:09.797Z,6.60
2018-10-06T11:33:14.099Z,6.25
2018-10-06T11:34:23.194Z,6.37
2018-10-06T11:37:21.331Z,6.87
2018-10-06T11:38:37.897Z,6.80
2018-10-06T11:39:43.595Z,6.00
2018-10-06T11:42:17.284Z,5.33
2018-10-06T11:43:27.431Z,5.47
2018-10-06T11:44:31.684Z,5.70
2018-10-06T11:45:35.856Z,5.40
2018-10-06T11:46:40.040Z,6.30
2018-10-06T11:47:44.140Z,5.30
2018-10-06T11:48:48.258Z,5.70
2018-10-06T11:49:52.529Z,6.10
2018-10-06T11:50:56.849Z,7.40
2018-10-06T11:52:01.695Z,7.08
2018-10-06T11:53:05.931Z,6.78
2018-10-06T11:54:10.103Z,7.10
2018-10-06T11:55:14.326Z,7.62
2018-10-06T11:56:18.503Z,9.20
2018-10-06T11:57:22.720Z,6.03
2018-10-06T11:58:26.839Z,5.70
2018-10-06T11:59:30.978Z,6.30
2018-10-06T12:00:38.104Z,5.20
2018-10-06T12:01:42.204Z,5.22
2018-10-06T12:02:46.479Z,5.00
2018-10-06T12:03:50.621Z,5.28
2018-10-06T12:04:55.742Z,5.30
2018-10-06T12:06:00.400Z,6.87
2018-10-06T12:07:05.035Z,6.40
2018-10-06T12:08:09.179Z,8.37
2018-10-06T12:09:13.392Z,6.00
2018-10-06T12:10:17.617Z,6.70
2018-10-06T12:11:21.931Z,7.73
2018-10-06T12:12:29.260Z,6.20
2018-10-06T12:13:33.376Z,5.70
2018-10-06T12:14:39.404Z,5.20
2018-10-06T12:15:43.666Z,6.00
2018-10-06T12:16:51.977Z,5.37
2018-10-06T12:17:56.180Z,6.00
2018-10-06T12:19:00.480Z,5.37
2018-10-06T12:20:04.932Z,6.20
2018-10-06T12:21:09.240Z,5.80
2018-10-06T12:22:13.566Z,6.63
2018-10-06T12:23:17.711Z,5.90
2018-10-06T12:24:21.992Z,5.40
2018-10-06T12:25:26.421Z,5.43
2018-10-06T12:26:30.696Z,5.47
2018-10-06T12:27:35.032Z,5.50
2018-10-06T12:28:39.215Z,6.17
2018-10-06T12:29:43.532Z,6.83
2018-10-06T12:30:47.703Z,6.47
2018-10-06T12:31:51.797Z,6.47
2018-10-06T12:32:56.208Z,6.10
2018-10-06T12:34:00.303Z,6.10
2018-10-06T12:35:04.482Z,6.10
2018-10-06T12:36:08.820Z,7.13
2018-10-06T12:37:12.985Z,6.27
2018-10-06T12:38:17.332Z,6.30
2018-10-06T12:39:21.575Z,7.10
2018-10-06T12:40:25.943Z,6.53
2018-10-06T12:41:30.224Z,6.00
2018-10-06T12:42:34.421Z,7.57
2018-10-06T12:43:38.730Z,6.57
2018-10-06T12:44:48.475Z,6.07
2018-10-06T12:45:52.788Z,6.37
2018-10-06T12:46:57.143Z,6.50
2018-10-06T12:48:01.316Z,6.10
2018-10-06T12:49:05.702Z,6.03
2018-10-06T12:50:15.336Z,5.50
2018-10-06T12:51:19.576Z,4.63
2018-10-06T12:52:24.149Z,4.87
2018-10-06T12:53:28.358Z,5.03
2018-10-06T12:54:32.663Z,5.17
2018-10-06T12:55:36.796Z,5.20
2018-10-06T12:56:40.958Z,5.20
2018-10-06T12:57:45.561Z,5.33
2018-10-06T12:58:49.725Z,5.17
2018-10-06T12:59:54.535Z,5.20
2018-10-06T13:00:58.840Z,5.03
2018-10-06T13:02:03.125Z,4.87
2018-10-06T13:03:07.458Z,5.10
2018-10-06T13:04:11.599Z,4.97
2018-10-06T13:05:15.898Z,5.20
2018-10-06T13:06:20.039Z,5.27
2018-10-06T13:07:24.202Z,5.00
2018-10-06T13:08:28.363Z,4.77
2018-10-06T13:09:32.495Z,5.10
2018-10-06T13:10:36.657Z,5.20
2018-10-06T13:11:41.209Z,4.50
2018-10-06T13:12:45.375Z,4.93
2018-10-06T13:13:49.514Z,4.73
2018-10-06T13:14:53.720Z,4.80
2018-10-06T13:15:58.533Z,5.90
2018-10-06T13:17:02.678Z,4.47
2018-10-06T13:18:06.978Z,5.13
2018-10-06T13:19:16.450Z,5.30
2018-10-06T13:20:20.601Z,7.53
2018-10-06T13:21:24.837Z,8.63
2018-10-06T13:22:28.969Z,5.63
2018-10-06T13:23:33.175Z,5.60
2018-10-06T13:24:37.321Z,5.57
2018-10-06T13:25:41.464Z,5.63
2018-10-06T13:26:45.742Z,6.50
2018-10-06T13:27:49.959Z,6.30
2018-10-06T13:28:54.200Z,6.57
2018-10-06T13:29:58.385Z,6.20
2018-10-06T13:31:02.567Z,5.70
2018-10-06T13:32:07.091Z,6.50
2018-10-06T13:33:11.359Z,5.03
2018-10-06T13:34:15.543Z,5.93
2018-10-06T13:35:19.654Z,5.07
2018-10-06T13:36:23.828Z,5.30
2018-10-06T13:37:27.999Z,4.97
2018-10-06T13:38:32.589Z,4.67
2018-10-06T13:39:36.803Z,5.47
2018-10-06T13:40:40.958Z,5.10
2018-10-06T13:41:45.096Z,5.57
2018-10-06T13:42:49.758Z,5.30
2018-10-06T13:43:53.986Z,4.83
2018-10-06T13:44:58.155Z,5.47
2018-10-06T13:46:02.381Z,5.07
2018-10-06T13:47:06.561Z,5.90
2018-10-06T13:48:10.719Z,5.70
2018-10-06T13:49:14.859Z,5.90
2018-10-06T13:50:19.002Z,5.10
2018-10-06T13:51:23.180Z,5.53
2018-10-06T13:52:27.384Z,5.07
2018-10-06T13:53:31.710Z,4.63
2018-10-06T13:54:35.928Z,5.27
2018-10-06T13:55:40.181Z,4.97
2018-10-06T13:56:44.485Z,5.40
2018-10-06T13:57:48.662Z,5.20
2018-10-06T13:58:52.863Z,4.90
2018-10-06T13:59:57.050Z,5.57
2018-10-06T14:01:01.344Z,5.60
2018-10-06T14:02:05.582Z,5.42
2018-10-06T14:03:14.980Z,5.27
2018-10-06T14:04:19.225Z,5.33
2018-10-06T14:05:23.500Z,5.12
2018-10-06T14:06:27.739Z,5.42
2018-10-06T14:07:32.045Z,5.95
2018-10-06T14:08:36.146Z,5.60
2018-10-06T14:09:40.433Z,5.90
2018-10-06T14:10:44.627Z,5.70
2018-10-06T14:11:48.774Z,5.87
2018-10-06T14:12:53.553Z,5.42
2018-10-06T14:13:57.781Z,5.70
2018-10-06T14:15:01.985Z,5.70
2018-10-06T14:16:06.208Z,6.30
2018-10-06T14:17:10.494Z,5.30
2018-10-06T14:18:14.772Z,6.13
2018-10-06T14:19:18.983Z,5.55
2018-10-06T14:20:23.146Z,5.85
2018-10-06T14:21:27.297Z,5.75
2018-10-06T14:22:31.381Z,5.60
2018-10-06T14:23:35.615Z,6.12
2018-10-06T14:24:39.803Z,6.03
2018-10-06T14:25:44.104Z,5.58
2018-10-06T14:26:48.304Z,5.90
2018-10-06T14:27:52.435Z,5.37
2018-10-06T14:28:56.578Z,5.50
2018-10-06T14:30:00.835Z,5.35
2018-10-06T14:31:05.117Z,5.95
2018-10-06T14:32:09.325Z,5.72
2018-10-06T14:33:13.514Z,5.58
2018-10-06T14:34:17.702Z,5.70
2018-10-06T14:35:21.852Z,6.10
2018-10-06T14:36:26.045Z,6.00
2018-10-06T14:37:30.200Z,5.37
2018-10-06T14:38:34.418Z,5.87
2018-10-06T14:39:38.604Z,6.08
2018-10-06T14:40:42.962Z,5.80
2018-10-06T14:41:48.364Z,5.73
2018-10-06T14:42:52.500Z,5.37
2018-10-06T14:43:58.608Z,5.70
2018-10-06T14:45:06.577Z,5.60
2018-10-06T14:46:15.952Z,5.60
2018-10-06T14:47:20.308Z,5.67
2018-10-06T14:48:24.480Z,6.20
2018-10-06T14:49:28.864Z,5.60
2018-10-06T14:50:33.061Z,6.00
2018-10-06T14:51:37.240Z,6.13
2018-10-06T14:52:41.479Z,5.60
2018-10-06T14:53:45.610Z,6.77
2018-10-06T14:54:49.755Z,6.50
2018-10-06T14:55:53.863Z,6.85
2018-10-06T14:56:58.064Z,6.60
2018-10-06T14:58:02.129Z,6.20
2018-10-06T14:59:06.313Z,6.27
2018-10-06T15:00:10.639Z,5.97
2018-10-06T15:01:14.771Z,5.57
2018-10-06T15:02:18.995Z,6.67
2018-10-06T15:03:23.307Z,6.40
2018-10-06T15:04:28.152Z,5.77
2018-10-06T15:05:32.278Z,6.00
2018-10-06T15:06:36.448Z,5.93